createdAt,value
2023-11-29T00:02:07.873Z,99487.20
2023-11-29T00:07:15.926Z,99485.00
2023-11-29T00:12:18.915Z,99492.00
2023-11-29T00:17:22.423Z,99494.00
2023-11-29T00:22:29.198Z,99499.20
2023-11-29T00:27:32.172Z,99509.20
2023-11-29T00:32:37.512Z,99515.60
2023-11-29T00:37:43.275Z,99500.20
2023-11-29T00:42:48.504Z,99504.80
2023-11-29T00:47:51.456Z,99516.40
2023-11-29T00:52:57.579Z,99524.20
2023-11-29T00:58:01.949Z,99527.40
2023-11-29T01:03:07.575Z,99514.00
2023-11-29T01:08:12.109Z,99533.00
2023-11-29T01:13:22.760Z,99532.00
2023-11-29T01:18:28.752Z,99530.60
2023-11-29T01:23:34.379Z,99516.00
2023-11-29T01:28:37.898Z,99520.00
2023-11-29T01:33:42.303Z,99528.20
2023-11-29T01:38:48.176Z,99532.20
2023-11-29T01:43:51.064Z,99530.40
2023-11-29T01:48:54.847Z,99545.00
2023-11-29T01:54:03.713Z,99536.80
2023-11-29T01:59:14.901Z,99538.40
2023-11-29T02:04:20.261Z,99543.80
2023-11-29T02:09:28.274Z,99545.80
2023-11-29T02:14:31.715Z,99535.40
2023-11-29T02:19:35.704Z,99537.00
2023-11-29T02:24:44.127Z,99539.40
2023-11-29T02:29:49.233Z,99543.80
2023-11-29T02:34:55.437Z,99539.00
2023-11-29T02:39:58.346Z,99534.80
2023-11-29T02:45:03.579Z,99542.40
2023-11-29T02:50:10.235Z,99544.60
2023-11-29T02:55:13.335Z,99545.60
2023-11-29T03:00:23.057Z,99554.40
2023-11-29T03:05:26.124Z,99564.20
2023-11-29T03:10:29.118Z,99566.20
2023-11-29T03:15:32.002Z,99566.60
2023-11-29T03:20:37.706Z,99556.00
2023-11-29T03:25:40.624Z,99564.20
2023-11-29T03:30:48.438Z,99561.00
2023-11-29T03:35:51.349Z,99558.40
2023-11-29T03:40:56.648Z,99564.20
2023-11-29T03:46:03.184Z,99562.20
2023-11-29T03:51:11.197Z,99561.40
2023-11-29T03:56:14.000Z,99568.20
2023-11-29T04:01:19.984Z,99567.20
2023-11-29T04:06:29.995Z,99560.80
2023-11-29T04:11:33.343Z,99554.40
2023-11-29T04:16:40.063Z,99553.20
2023-11-29T04:21:42.979Z,99548.60
2023-11-29T04:26:50.980Z,99545.00
2023-11-29T04:31:53.874Z,99540.80
2023-11-29T04:37:00.407Z,99536.80
2023-11-29T04:42:09.734Z,99543.00
2023-11-29T04:47:14.704Z,99544.60
2023-11-29T04:52:18.201Z,99539.80
2023-11-29T04:57:24.303Z,99549.80
2023-11-29T05:02:27.317Z,99548.60
2023-11-29T05:07:34.257Z,99553.40
2023-11-29T05:12:37.208Z,99548.80
2023-11-29T05:17:44.277Z,99555.80
2023-11-29T05:22:47.996Z,99547.40
2023-11-29T05:27:55.429Z,99550.20
2023-11-29T05:33:02.290Z,99563.60
2023-11-29T05:38:06.536Z,99568.20
2023-11-29T05:43:12.643Z,99571.60
2023-11-29T05:48:19.174Z,99568.40
2023-11-29T05:53:38.951Z,99578.40
2023-11-29T05:58:52.769Z,99577.00
2023-11-29T06:03:57.038Z,99584.80
2023-11-29T06:09:10.515Z,99589.40
2023-11-29T06:14:13.451Z,99590.40
2023-11-29T06:19:16.539Z,99597.00
2023-11-29T06:24:19.634Z,99596.80
2023-11-29T06:29:28.164Z,99596.40
2023-11-29T06:34:33.791Z,99590.60
2023-11-29T06:39:39.149Z,99600.40
2023-11-29T06:44:42.337Z,99604.60
2023-11-29T06:49:46.153Z,99618.80
2023-11-29T06:54:52.778Z,99619.80
2023-11-29T06:59:55.774Z,99621.40
2023-11-29T07:04:59.857Z,99635.40
2023-11-29T07:10:06.354Z,99640.40
2023-11-29T07:15:12.426Z,99636.60
2023-11-29T07:20:21.239Z,99654.00
2023-11-29T07:25:28.377Z,99656.20
2023-11-29T07:30:33.552Z,99658.00
2023-11-29T07:35:44.145Z,99661.60
2023-11-29T07:40:48.557Z,99660.20
2023-11-29T07:45:54.460Z,99665.60
2023-11-29T07:51:02.921Z,99663.00
2023-11-29T07:56:10.212Z,99672.80
2023-11-29T08:01:17.500Z,99672.00
2023-11-29T08:06:23.153Z,99672.80
2023-11-29T08:11:27.269Z,99671.60
2023-11-29T08:16:35.109Z,99672.00
2023-11-29T08:21:38.085Z,99670.20
2023-11-29T08:26:41.178Z,99671.20
2023-11-29T08:31:45.936Z,99666.00
2023-11-29T08:36:52.724Z,99641.40
2023-11-29T08:41:56.421Z,99628.80
2023-11-29T08:47:01.182Z,99621.40
2023-11-29T08:52:08.087Z,99615.20
2023-11-29T08:57:11.036Z,99613.40
2023-11-29T09:02:14.091Z,99608.60
2023-11-29T09:07:23.798Z,99627.00
2023-11-29T09:12:29.025Z,99637.60
2023-11-29T09:17:33.840Z,99651.80
2023-11-29T09:22:47.425Z,99655.60
2023-11-29T09:27:53.552Z,99663.00
2023-11-29T09:32:57.286Z,99672.40
2023-11-29T09:38:06.972Z,99675.80
2023-11-29T09:43:11.646Z,99673.20
2023-11-29T09:48:16.279Z,99667.60
2023-11-29T09:53:19.577Z,99675.80
2023-11-29T09:58:28.368Z,99673.60
2023-11-29T10:03:32.844Z,99672.80
2023-11-29T10:08:38.360Z,99672.60
2023-11-29T10:13:45.082Z,99674.60
2023-11-29T10:18:51.867Z,99684.00
2023-11-29T10:23:58.275Z,99686.20
2023-11-29T10:29:04.162Z,99684.40
2023-11-29T10:34:13.354Z,99678.20
2023-11-29T10:39:24.376Z,99689.60
2023-11-29T10:44:43.559Z,99694.80
2023-11-29T10:50:06.072Z,99696.00
2023-11-29T10:55:10.504Z,99706.40
2023-11-29T11:00:19.118Z,99697.80
2023-11-29T11:05:30.433Z,99695.20
2023-11-29T11:10:35.697Z,99696.60
2023-11-29T11:15:39.533Z,99704.00
2023-11-29T11:20:50.214Z,99704.20
2023-11-29T11:26:10.755Z,99692.80
2023-11-29T11:31:18.070Z,99687.40
2023-11-29T11:36:26.390Z,99678.40
2023-11-29T11:41:29.587Z,99672.20
2023-11-29T11:46:33.606Z,99674.00
2023-11-29T11:51:39.191Z,99673.40
2023-11-29T11:56:42.401Z,99670.20
2023-11-29T12:01:46.338Z,99671.60
2023-11-29T12:06:53.457Z,99674.60
2023-11-29T12:12:17.134Z,99672.00
2023-11-29T12:17:21.113Z,99670.60
2023-11-29T12:22:29.015Z,99668.20
2023-11-29T12:27:32.688Z,99664.40
2023-11-29T12:32:35.755Z,99667.40
2023-11-29T12:37:44.570Z,99661.00
2023-11-29T12:42:50.592Z,99659.80
2023-11-29T12:48:04.365Z,99661.60
2023-11-29T12:53:08.311Z,99665.00
2023-11-29T12:58:11.245Z,99657.00
2023-11-29T13:03:19.924Z,99656.00
2023-11-29T13:08:23.215Z,99653.40
2023-11-29T13:13:29.421Z,99656.20
2023-11-29T13:18:35.204Z,99652.80
2023-11-29T13:23:39.541Z,99655.40
2023-11-29T13:28:45.989Z,99660.60
2023-11-29T13:33:52.065Z,99654.40
2023-11-29T13:38:55.301Z,99665.00
2023-11-29T13:44:00.865Z,99670.00
2023-11-29T13:49:05.764Z,99676.60
2023-11-29T13:54:09.215Z,99680.40
2023-11-29T13:59:13.527Z,99681.60
2023-11-29T14:04:25.904Z,99681.60
2023-11-29T14:09:36.908Z,99687.20
2023-11-29T14:14:40.895Z,99686.60
2023-11-29T14:19:44.035Z,99688.40
2023-11-29T14:24:49.277Z,99692.40
2023-11-29T14:29:52.213Z,99687.40
2023-11-29T14:34:55.507Z,99692.40
2023-11-29T14:39:58.398Z,99696.20
2023-11-29T14:45:05.011Z,99691.60
2023-11-29T14:50:09.396Z,99688.20
2023-11-29T14:55:12.383Z,99693.20
2023-11-29T15:00:22.145Z,99696.60
2023-11-29T15:05:25.172Z,99690.60
2023-11-29T15:10:29.761Z,99690.40
2023-11-29T15:15:34.411Z,99684.20
2023-11-29T15:20:37.378Z,99685.20
2023-11-29T15:25:40.328Z,99690.00
2023-11-29T15:30:43.316Z,99690.80
2023-11-29T15:35:46.403Z,99687.40
2023-11-29T15:40:50.763Z,99692.80
2023-11-29T15:45:54.032Z,99692.60
2023-11-29T15:50:57.503Z,99690.20
2023-11-29T15:56:01.128Z,99684.80
2023-11-29T16:01:07.105Z,99688.40
2023-11-29T16:06:16.633Z,99686.40
2023-11-29T16:11:21.361Z,99685.80
2023-11-29T16:16:26.655Z,99681.40
2023-11-29T16:21:34.071Z,99688.80
2023-11-29T16:26:38.339Z,99681.20
2023-11-29T16:31:41.352Z,99683.80
2023-11-29T16:36:46.493Z,99684.40
2023-11-29T16:41:49.704Z,99689.40
2023-11-29T16:46:55.009Z,99698.80
2023-11-29T16:51:58.283Z,99703.20
2023-11-29T16:57:01.079Z,99701.60
2023-11-29T17:02:04.874Z,99699.00
2023-11-29T17:07:08.448Z,99695.00
2023-11-29T17:12:18.165Z,99691.80
2023-11-29T17:17:23.599Z,99696.80
2023-11-29T17:22:31.570Z,99698.00
2023-11-29T17:27:37.474Z,99705.60
2023-11-29T17:32:41.583Z,99710.40
2023-11-29T17:37:44.557Z,99709.00
2023-11-29T17:42:52.387Z,99707.20
2023-11-29T17:47:55.362Z,99713.80
2023-11-29T17:53:04.269Z,99709.00
2023-11-29T17:58:09.634Z,99716.40
2023-11-29T18:03:12.834Z,99697.80
2023-11-29T18:08:16.335Z,99703.80
2023-11-29T18:13:21.955Z,99702.80
2023-11-29T18:18:25.163Z,99722.20
2023-11-29T18:23:33.999Z,99716.60
2023-11-29T18:28:37.129Z,99709.40
2023-11-29T18:33:40.977Z,99714.20
2023-11-29T18:38:44.849Z,99713.40
2023-11-29T18:43:50.949Z,99722.40
2023-11-29T18:48:59.434Z,99720.20
2023-11-29T18:54:02.937Z,99714.60
2023-11-29T18:59:06.020Z,99711.40
2023-11-29T19:04:09.374Z,99703.60
2023-11-29T19:09:15.740Z,99698.60
2023-11-29T19:14:18.886Z,99706.40
2023-11-29T19:19:21.889Z,99693.00
2023-11-29T19:24:26.361Z,99697.60
2023-11-29T19:29:34.507Z,99699.80
2023-11-29T19:34:37.368Z,99700.00
2023-11-29T19:39:40.758Z,99693.40
2023-11-29T19:44:46.677Z,99685.80
2023-11-29T19:49:49.787Z,99684.40
2023-11-29T19:54:52.828Z,99676.00
2023-11-29T19:59:59.064Z,99681.00
2023-11-29T20:05:02.143Z,99684.00
2023-11-29T20:10:06.040Z,99681.40
2023-11-29T20:15:10.012Z,99682.40
2023-11-29T20:20:23.915Z,99684.40
2023-11-29T20:25:35.150Z,99676.40
2023-11-29T20:30:39.101Z,99684.60
2023-11-29T20:35:45.028Z,99689.80
2023-11-29T20:40:52.794Z,99686.80
2023-11-29T20:45:55.753Z,99690.00
2023-11-29T20:51:02.066Z,99685.60
2023-11-29T20:56:06.213Z,99681.00
2023-11-29T21:01:10.269Z,99682.20
2023-11-29T21:06:13.211Z,99664.80
2023-11-29T21:11:19.230Z,99666.20
2023-11-29T21:16:22.422Z,99667.60
2023-11-29T21:21:25.446Z,99653.40
2023-11-29T21:26:28.557Z,99654.20
2023-11-29T21:31:33.420Z,99645.60
2023-11-29T21:36:37.969Z,99643.80
2023-11-29T21:41:41.257Z,99648.00
2023-11-29T21:46:46.203Z,99647.00
2023-11-29T21:51:55.857Z,99641.60
2023-11-29T21:57:05.509Z,99642.40
2023-11-29T22:02:08.523Z,99640.20
2023-11-29T22:07:16.865Z,99644.20
2023-11-29T22:12:19.760Z,99647.40
2023-11-29T22:17:22.699Z,99640.80
2023-11-29T22:22:25.711Z,99644.00
2023-11-29T22:27:28.913Z,99641.60
2023-11-29T22:32:31.872Z,99645.00
2023-11-29T22:37:36.100Z,99643.20
2023-11-29T22:42:39.191Z,99637.40
2023-11-29T22:47:43.274Z,99630.40
2023-11-29T22:52:47.787Z,99637.80
2023-11-29T22:57:52.093Z,99638.80
2023-11-29T23:02:57.986Z,99627.00
2023-11-29T23:08:01.152Z,99622.40
2023-11-29T23:13:04.006Z,99617.20
2023-11-29T23:18:10.875Z,99603.80
2023-11-29T23:23:20.250Z,99595.40
2023-11-29T23:28:27.356Z,99595.80
2023-11-29T23:33:35.929Z,99587.00
2023-11-29T23:38:39.997Z,99584.80
2023-11-29T23:43:43.064Z,99571.80
2023-11-29T23:48:48.825Z,99567.60
2023-11-29T23:53:54.586Z,99566.40
2023-11-29T23:59:01.001Z,99565.60
